createdAt,value
2018-09-24T00:00:39.590Z,13.40
2018-09-24T00:03:07.978Z,14.20
2018-09-24T00:05:36.357Z,15.97
2018-09-24T00:08:04.816Z,11.87
2018-09-24T00:10:33.217Z,14.70
2018-09-24T00:13:01.636Z,13.73
2018-09-24T00:15:30.028Z,13.73
2018-09-24T00:17:58.412Z,15.30
2018-09-24T00:20:26.772Z,10.63
2018-09-24T00:22:55.272Z,11.57
2018-09-24T00:25:23.376Z,13.00
2018-09-24T00:27:51.783Z,11.30
2018-09-24T00:30:20.144Z,10.50
2018-09-24T00:32:48.596Z,15.63
2018-09-24T00:35:16.993Z,11.20
2018-09-24T00:37:45.409Z,12.07
2018-09-24T00:40:13.812Z,14.20
2018-09-24T00:42:42.436Z,9.17
2018-09-24T00:45:10.909Z,11.27
2018-09-24T00:47:39.512Z,12.60
2018-09-24T00:50:07.976Z,11.37
2018-09-24T00:52:36.397Z,14.80
2018-09-24T00:55:04.849Z,12.27
2018-09-24T00:57:33.360Z,14.13
2018-09-24T01:00:01.749Z,13.13
2018-09-24T01:02:30.117Z,12.80
2018-09-24T01:04:58.526Z,13.77
2018-09-24T01:07:27.153Z,17.43
2018-09-24T01:09:55.553Z,17.97
2018-09-24T01:12:23.953Z,16.63
2018-09-24T01:14:52.399Z,19.37
2018-09-24T01:17:20.819Z,19.13
2018-09-24T01:19:49.229Z,17.50
2018-09-24T01:22:17.624Z,22.00
2018-09-24T01:24:46.225Z,16.80
2018-09-24T01:27:14.606Z,22.40
2018-09-24T01:29:43.017Z,19.20
2018-09-24T01:32:11.373Z,17.23
2018-09-24T01:34:39.752Z,27.03
2018-09-24T01:37:08.157Z,19.20
2018-09-24T01:39:36.638Z,18.57
2018-09-24T01:42:05.181Z,23.33
2018-09-24T01:44:33.597Z,20.27
2018-09-24T01:47:02.010Z,26.70
2018-09-24T01:49:30.419Z,19.73
2018-09-24T01:51:58.863Z,16.73
2018-09-24T01:54:30.144Z,18.97
2018-09-24T01:56:58.556Z,19.70
2018-09-24T01:59:26.963Z,20.30
2018-09-24T02:01:55.353Z,17.73
2018-09-24T02:04:23.773Z,27.00
2018-09-24T02:06:57.432Z,21.87
2018-09-24T02:09:25.817Z,27.27
2018-09-24T02:11:54.266Z,22.33
2018-09-24T02:14:22.665Z,25.63
2018-09-24T02:16:51.048Z,20.43
2018-09-24T02:19:19.440Z,28.77
2018-09-24T02:21:47.827Z,24.43
2018-09-24T02:24:16.216Z,16.83
2018-09-24T02:26:44.673Z,26.33
2018-09-24T02:29:13.148Z,23.90
2018-09-24T02:31:41.552Z,21.20
2018-09-24T02:34:10.873Z,31.30
2018-09-24T02:36:39.332Z,27.90
2018-09-24T02:39:08.952Z,19.93
2018-09-24T02:41:37.812Z,26.10
2018-09-24T02:44:06.224Z,23.13
2018-09-24T02:46:43.320Z,22.93
2018-09-24T02:49:11.717Z,25.40
2018-09-24T02:51:40.124Z,22.97
2018-09-24T02:54:08.536Z,22.87
2018-09-24T02:56:46.793Z,22.33
2018-09-24T02:59:15.424Z,20.93
2018-09-24T03:01:43.857Z,22.43
2018-09-24T03:04:12.260Z,20.70
2018-09-24T03:06:40.732Z,20.80
2018-09-24T03:09:14.834Z,17.40
2018-09-24T03:11:43.697Z,15.80
2018-09-24T03:14:12.113Z,18.90
2018-09-24T03:16:40.524Z,17.40
2018-09-24T03:19:08.932Z,21.97
2018-09-24T03:21:37.657Z,23.03
2018-09-24T03:24:06.096Z,17.07
2018-09-24T03:26:40.814Z,21.07
2018-09-24T03:29:10.573Z,17.63
2018-09-24T03:31:38.955Z,21.73
2018-09-24T03:34:12.891Z,18.90
2018-09-24T03:36:41.255Z,20.07
2018-09-24T03:39:09.713Z,13.00
2018-09-24T03:41:38.112Z,19.83
2018-09-24T03:44:06.620Z,18.10
2018-09-24T03:46:34.723Z,15.17
2018-09-24T03:49:03.231Z,18.20
2018-09-24T03:51:31.776Z,16.37
2018-09-24T03:54:01.173Z,16.37
2018-09-24T03:56:29.583Z,19.50
2018-09-24T03:58:57.988Z,17.63
2018-09-24T04:01:26.367Z,19.83
2018-09-24T04:04:00.092Z,16.83
2018-09-24T04:06:33.898Z,18.77
2018-09-24T04:09:07.648Z,21.80
2018-09-24T04:11:41.483Z,19.63
2018-09-24T04:14:15.280Z,17.63
2018-09-24T04:16:49.036Z,18.07
2018-09-24T04:19:22.949Z,17.60
2018-09-24T04:21:56.499Z,17.60
2018-09-24T04:24:30.161Z,18.83
2018-09-24T04:27:03.975Z,15.80
2018-09-24T04:29:37.705Z,16.90
2018-09-24T04:32:11.405Z,16.17
2018-09-24T04:34:45.121Z,18.97
2018-09-24T04:37:18.918Z,17.00
2018-09-24T04:39:52.594Z,19.93
2018-09-24T04:42:26.328Z,20.27
2018-09-24T04:44:59.945Z,12.80
2018-09-24T04:47:33.612Z,18.17
2018-09-24T04:50:07.227Z,18.77
2018-09-24T04:52:41.053Z,20.03
2018-09-24T04:55:14.925Z,17.77
2018-09-24T04:57:48.709Z,21.03
2018-09-24T05:00:22.532Z,16.43
2018-09-24T05:02:56.228Z,19.07
2018-09-24T05:05:30.075Z,17.60
2018-09-24T05:08:03.868Z,18.73
2018-09-24T05:10:37.570Z,14.30
2018-09-24T05:13:11.349Z,13.87
2018-09-24T05:15:45.076Z,14.40
2018-09-24T05:18:18.874Z,15.97
2018-09-24T05:20:52.687Z,15.43
2018-09-24T05:23:27.164Z,10.70
2018-09-24T05:26:00.900Z,15.47
2018-09-24T05:28:34.544Z,17.53
2018-09-24T05:31:08.252Z,14.37
2018-09-24T05:33:42.126Z,14.90
2018-09-24T05:36:15.921Z,16.17
2018-09-24T05:38:49.508Z,18.10
2018-09-24T05:41:23.296Z,15.20
2018-09-24T05:43:56.924Z,16.57
2018-09-24T05:46:30.520Z,16.53
2018-09-24T05:49:04.357Z,14.27
2018-09-24T05:51:38.188Z,14.00
2018-09-24T05:54:11.856Z,16.37
2018-09-24T05:56:45.568Z,17.23
2018-09-24T05:59:19.307Z,13.90
2018-09-24T06:01:53.135Z,16.67
2018-09-24T06:04:26.800Z,17.03
2018-09-24T06:07:00.553Z,13.20
2018-09-24T06:09:34.396Z,9.27
2018-09-24T06:12:08.195Z,10.77
2018-09-24T06:14:41.928Z,19.17
2018-09-24T06:17:15.594Z,18.53
2018-09-24T06:19:49.298Z,12.57
2018-09-24T06:22:22.996Z,13.70
2018-09-24T06:24:56.596Z,14.70
2018-09-24T06:27:30.296Z,14.70
2018-09-24T06:30:03.945Z,18.23
2018-09-24T06:32:37.547Z,14.87
2018-09-24T06:35:11.304Z,13.80
2018-09-24T06:37:45.033Z,16.33
2018-09-24T06:40:18.742Z,11.73
2018-09-24T06:42:52.365Z,17.87
2018-09-24T06:45:26.154Z,13.40
2018-09-24T06:47:59.765Z,16.57
2018-09-24T06:50:33.337Z,16.23
2018-09-24T06:53:07.057Z,17.37
2018-09-24T06:55:40.934Z,13.23
2018-09-24T06:58:14.720Z,14.37
2018-09-24T07:00:48.476Z,14.07
2018-09-24T07:03:22.231Z,11.33
2018-09-24T07:05:55.915Z,13.10
2018-09-24T07:08:29.589Z,16.43
2018-09-24T07:11:03.160Z,18.43
2018-09-24T07:13:36.902Z,14.97
2018-09-24T07:16:10.712Z,10.63
2018-09-24T07:18:44.510Z,16.50
2018-09-24T07:21:18.344Z,12.43
2018-09-24T07:23:51.982Z,13.10
2018-09-24T07:26:25.708Z,11.37
2018-09-24T07:28:59.392Z,12.63
2018-09-24T07:31:33.118Z,11.10
2018-09-24T07:34:06.589Z,12.30
2018-09-24T07:36:40.493Z,10.70
2018-09-24T07:39:15.111Z,15.97
2018-09-24T07:41:49.213Z,10.43
2018-09-24T07:44:22.961Z,14.30
2018-09-24T07:46:56.664Z,10.50
2018-09-24T07:49:30.381Z,10.27
2018-09-24T07:52:04.180Z,17.03
2018-09-24T07:54:37.988Z,9.80
2018-09-24T07:57:11.829Z,10.27
2018-09-24T07:59:45.418Z,10.77
2018-09-24T08:02:19.117Z,9.13
2018-09-24T08:04:52.775Z,9.13
2018-09-24T08:07:26.505Z,9.23
2018-09-24T08:10:00.333Z,8.80
2018-09-24T08:12:34.265Z,7.40
2018-09-24T08:15:07.945Z,9.90
2018-09-24T08:17:41.813Z,8.30
2018-09-24T08:20:15.540Z,9.40
2018-09-24T08:22:49.299Z,13.13
2018-09-24T08:25:23.148Z,10.80
2018-09-24T08:27:56.864Z,11.37
2018-09-24T08:30:30.470Z,15.10
2018-09-24T08:33:04.105Z,11.33
2018-09-24T08:35:37.701Z,15.63
2018-09-24T08:38:11.549Z,10.80
2018-09-24T08:40:45.221Z,12.53
2018-09-24T08:43:18.956Z,13.23
2018-09-24T08:45:52.709Z,14.40
2018-09-24T08:48:26.435Z,13.00
2018-09-24T08:51:00.208Z,11.17
2018-09-24T08:53:34.114Z,9.03
2018-09-24T08:56:07.901Z,13.67
2018-09-24T08:58:41.629Z,14.53
2018-09-24T09:01:15.285Z,11.90
2018-09-24T09:03:49.004Z,7.87
2018-09-24T09:06:22.723Z,14.37
2018-09-24T09:08:56.520Z,12.53
2018-09-24T09:11:30.236Z,12.23
2018-09-24T09:14:03.940Z,8.97
2018-09-24T09:16:37.697Z,10.83
2018-09-24T09:19:11.802Z,9.43
2018-09-24T09:21:45.551Z,8.00
2018-09-24T09:24:19.386Z,9.07
2018-09-24T09:26:53.224Z,6.73
2018-09-24T09:29:27.114Z,10.77
2018-09-24T09:32:00.712Z,9.10
2018-09-24T09:34:34.397Z,11.47
2018-09-24T09:37:08.263Z,7.47
2018-09-24T09:39:42.036Z,13.10
2018-09-24T09:42:15.728Z,10.20
2018-09-24T09:44:49.516Z,9.63
2018-09-24T09:47:23.208Z,8.77
2018-09-24T09:49:56.949Z,8.77
2018-09-24T09:52:30.692Z,10.60
2018-09-24T09:55:04.407Z,12.73
2018-09-24T09:57:38.188Z,8.23
2018-09-24T10:00:12.446Z,8.53
2018-09-24T10:02:46.157Z,10.63
2018-09-24T10:05:19.989Z,11.03
2018-09-24T10:07:53.673Z,12.87
2018-09-24T10:10:27.389Z,9.13
2018-09-24T10:13:01.077Z,6.47
2018-09-24T10:15:34.681Z,9.63
2018-09-24T10:18:08.456Z,5.57
2018-09-24T10:20:42.113Z,7.23
2018-09-24T10:23:15.688Z,6.87
2018-09-24T10:25:49.416Z,6.43
2018-09-24T10:28:23.076Z,8.10
2018-09-24T10:30:56.792Z,6.73
2018-09-24T10:33:30.716Z,7.90
2018-09-24T10:36:04.394Z,14.73
2018-09-24T10:38:38.088Z,8.23
2018-09-24T10:41:12.001Z,6.87
2018-09-24T10:43:45.600Z,11.03
2018-09-24T10:46:19.621Z,8.43
2018-09-24T10:48:53.357Z,8.17
2018-09-24T10:51:27.139Z,9.27
2018-09-24T10:54:00.851Z,6.40
2018-09-24T10:56:34.640Z,5.93
2018-09-24T10:59:08.484Z,6.07
2018-09-24T11:01:42.244Z,7.23
2018-09-24T11:04:16.084Z,6.13
2018-09-24T11:06:49.850Z,7.93
2018-09-24T11:09:23.770Z,7.77
2018-09-24T11:11:57.360Z,4.67
2018-09-24T11:14:31.062Z,7.53
2018-09-24T11:17:05.050Z,4.93
2018-09-24T11:19:38.644Z,8.63
2018-09-24T11:22:12.326Z,5.67
2018-09-24T11:24:46.076Z,6.60
2018-09-24T11:27:19.833Z,5.93
2018-09-24T11:29:54.053Z,4.67
2018-09-24T11:32:28.627Z,5.53
2018-09-24T11:35:03.149Z,4.17
2018-09-24T11:37:37.900Z,5.30
2018-09-24T11:40:12.386Z,4.20
2018-09-24T11:42:46.892Z,7.80
2018-09-24T11:45:21.285Z,8.53
2018-09-24T11:47:55.932Z,6.57
2018-09-24T11:50:30.519Z,5.60
2018-09-24T11:53:05.073Z,4.50
2018-09-24T11:55:39.895Z,7.77
2018-09-24T11:58:14.562Z,4.53
2018-09-24T12:00:48.592Z,4.03
2018-09-24T12:03:22.323Z,5.83
2018-09-24T12:05:56.120Z,6.10
2018-09-24T12:08:29.797Z,6.00
2018-09-24T12:11:03.468Z,4.80
2018-09-24T12:13:37.332Z,8.90
2018-09-24T12:16:11.039Z,3.67
2018-09-24T12:18:44.693Z,7.53
2018-09-24T12:21:18.367Z,4.30
2018-09-24T12:23:52.148Z,3.33
2018-09-24T12:26:25.871Z,5.23
2018-09-24T12:28:59.561Z,5.33
2018-09-24T12:31:33.531Z,7.50
2018-09-24T12:34:07.146Z,4.30
2018-09-24T12:36:40.872Z,5.00
2018-09-24T12:39:14.668Z,5.53
2018-09-24T12:41:48.342Z,4.93
2018-09-24T12:44:23.046Z,3.47
2018-09-24T12:46:57.670Z,5.40
2018-09-24T12:49:32.055Z,4.70
2018-09-24T12:52:06.714Z,4.57
2018-09-24T12:54:41.369Z,4.93
2018-09-24T12:57:15.759Z,5.37
2018-09-24T12:59:50.532Z,4.83
2018-09-24T13:02:25.077Z,6.20
2018-09-24T13:04:59.501Z,5.23
2018-09-24T13:07:34.350Z,3.77
2018-09-24T13:10:08.893Z,5.33
2018-09-24T13:12:43.665Z,3.23
2018-09-24T13:15:17.484Z,3.70
2018-09-24T13:17:51.094Z,4.80
2018-09-24T13:20:24.641Z,5.80
2018-09-24T13:22:59.015Z,6.23
2018-09-24T13:25:32.799Z,7.67
2018-09-24T13:28:06.455Z,4.33
2018-09-24T13:30:40.093Z,6.07
2018-09-24T13:33:13.796Z,7.03
2018-09-24T13:35:47.492Z,4.80
2018-09-24T13:38:21.199Z,5.43
2018-09-24T13:40:55.109Z,3.00
2018-09-24T13:43:28.817Z,3.53
2018-09-24T13:46:02.592Z,3.77
2018-09-24T13:48:36.260Z,5.57
2018-09-24T13:51:10.257Z,4.97
2018-09-24T13:53:44.146Z,4.90
2018-09-24T13:56:18.942Z,2.63
2018-09-24T13:58:53.381Z,3.20
2018-09-24T14:01:28.023Z,4.83
2018-09-24T14:04:02.707Z,3.07
2018-09-24T14:06:37.266Z,4.47
2018-09-24T14:09:13.300Z,5.10
2018-09-24T14:11:47.779Z,3.93
2018-09-24T14:14:23.165Z,3.60
2018-09-24T14:16:57.864Z,2.87
2018-09-24T14:19:32.496Z,2.53
2018-09-24T14:22:07.026Z,3.77
2018-09-24T14:24:41.683Z,4.10
2018-09-24T14:27:16.069Z,3.07
2018-09-24T14:29:50.663Z,3.83
2018-09-24T14:32:25.510Z,3.83
2018-09-24T14:35:00.075Z,5.07
2018-09-24T14:37:34.712Z,2.77
2018-09-24T14:40:09.163Z,4.37
2018-09-24T14:42:43.655Z,3.60
2018-09-24T14:45:18.445Z,2.40
2018-09-24T14:47:53.038Z,5.07
2018-09-24T14:50:27.901Z,3.30
2018-09-24T14:53:02.629Z,4.87
2018-09-24T14:55:37.172Z,4.70
2018-09-24T14:58:11.536Z,6.73
2018-09-24T15:00:46.114Z,8.40
2018-09-24T15:03:20.768Z,6.07
2018-09-24T15:05:55.321Z,3.67
2018-09-24T15:08:29.028Z,5.47
2018-09-24T15:11:02.782Z,6.90
2018-09-24T15:13:36.592Z,4.20
2018-09-24T15:16:10.449Z,3.70
2018-09-24T15:18:44.092Z,4.17
2018-09-24T15:21:17.845Z,7.00
2018-09-24T15:23:51.576Z,5.80
2018-09-24T15:26:25.488Z,5.47
2018-09-24T15:28:59.445Z,6.33
2018-09-24T15:31:32.920Z,5.73
2018-09-24T15:34:06.886Z,4.07
2018-09-24T15:36:40.637Z,6.47
2018-09-24T15:39:14.438Z,5.33
2018-09-24T15:41:48.376Z,11.70
2018-09-24T15:44:22.153Z,5.40
2018-09-24T15:46:55.846Z,6.07
2018-09-24T15:49:29.583Z,5.50
2018-09-24T15:52:03.580Z,5.63
2018-09-24T15:54:37.541Z,8.10
2018-09-24T15:57:11.761Z,8.80
2018-09-24T15:59:45.469Z,7.43
2018-09-24T16:02:19.206Z,9.10
2018-09-24T16:04:52.912Z,8.83
2018-09-24T16:07:26.856Z,7.40
2018-09-24T16:10:00.686Z,7.53
2018-09-24T16:12:34.552Z,7.30
2018-09-24T16:15:08.140Z,7.40
2018-09-24T16:17:41.949Z,7.23
2018-09-24T16:20:15.741Z,9.07
2018-09-24T16:22:49.573Z,6.77
2018-09-24T16:25:23.380Z,5.50
2018-09-24T16:27:57.125Z,7.23
2018-09-24T16:30:30.656Z,13.23
2018-09-24T16:33:04.283Z,7.03
2018-09-24T16:35:37.889Z,9.87
2018-09-24T16:38:18.609Z,5.07
2018-09-24T16:40:52.487Z,5.57
2018-09-24T16:43:26.089Z,6.87
2018-09-24T16:45:59.768Z,6.37
2018-09-24T16:48:33.528Z,6.63
2018-09-24T16:51:07.264Z,7.70
2018-09-24T16:53:41.184Z,8.67
2018-09-24T16:56:14.872Z,5.53
2018-09-24T16:58:48.465Z,5.50
2018-09-24T17:01:22.268Z,6.97
2018-09-24T17:03:56.073Z,6.40
2018-09-24T17:06:29.960Z,8.50
2018-09-24T17:09:03.516Z,7.00
2018-09-24T17:11:37.302Z,6.90
2018-09-24T17:14:11.084Z,7.57
2018-09-24T17:16:44.737Z,10.57
2018-09-24T17:19:18.295Z,9.37
2018-09-24T17:21:52.191Z,6.43
2018-09-24T17:24:26.303Z,6.33
2018-09-24T17:27:00.153Z,6.40
2018-09-24T17:29:34.054Z,8.07
2018-09-24T17:32:07.685Z,8.60
2018-09-24T17:34:41.605Z,9.43
2018-09-24T17:37:15.347Z,6.27
2018-09-24T17:39:49.159Z,9.43
2018-09-24T17:42:23.028Z,9.07
2018-09-24T17:44:56.935Z,9.00
2018-09-24T17:47:30.738Z,7.97
2018-09-24T17:50:04.440Z,6.93
2018-09-24T17:52:38.194Z,5.87
2018-09-24T17:55:12.148Z,4.57
2018-09-24T17:57:46.037Z,12.40
2018-09-24T18:00:19.746Z,7.87
2018-09-24T18:02:53.373Z,8.73
2018-09-24T18:05:27.096Z,7.90
2018-09-24T18:08:00.741Z,17.03
2018-09-24T18:10:34.650Z,14.33
2018-09-24T18:13:08.532Z,8.07
2018-09-24T18:15:42.821Z,10.43
2018-09-24T18:18:16.590Z,12.93
2018-09-24T18:20:50.357Z,8.93
2018-09-24T18:23:24.146Z,9.93
2018-09-24T18:25:57.938Z,13.17
2018-09-24T18:28:31.903Z,12.57
2018-09-24T18:31:05.765Z,13.30
2018-09-24T18:33:39.461Z,15.87
2018-09-24T18:36:13.192Z,17.07
2018-09-24T18:38:47.080Z,14.57
2018-09-24T18:41:20.923Z,12.03
2018-09-24T18:43:54.760Z,14.60
2018-09-24T18:46:28.404Z,15.00
2018-09-24T18:49:02.324Z,17.63
2018-09-24T18:51:36.007Z,13.83
2018-09-24T18:54:09.844Z,16.67
2018-09-24T18:56:43.644Z,15.53
2018-09-24T18:59:17.584Z,12.40
2018-09-24T19:01:51.421Z,18.93
2018-09-24T19:04:25.141Z,12.47
2018-09-24T19:06:58.761Z,12.57
2018-09-24T19:09:32.348Z,13.60
2018-09-24T19:12:05.981Z,12.27
2018-09-24T19:14:39.708Z,12.07
2018-09-24T19:17:13.388Z,10.83
2018-09-24T19:19:47.160Z,10.33
2018-09-24T19:22:20.807Z,11.33
2018-09-24T19:24:54.531Z,14.07
2018-09-24T19:27:28.325Z,14.00
2018-09-24T19:30:02.184Z,17.57
2018-09-24T19:32:35.818Z,12.73
2018-09-24T19:35:09.535Z,13.77
2018-09-24T19:37:43.365Z,8.60
2018-09-24T19:40:17.299Z,10.17
2018-09-24T19:42:51.177Z,10.67
2018-09-24T19:45:24.921Z,9.40
2018-09-24T19:47:58.650Z,10.20
2018-09-24T19:50:32.468Z,14.40
2018-09-24T19:53:06.331Z,6.50
2018-09-24T19:55:40.345Z,11.57
2018-09-24T19:58:14.260Z,12.57
2018-09-24T20:00:47.962Z,12.20
2018-09-24T20:03:21.880Z,12.43
2018-09-24T20:05:55.632Z,11.47
2018-09-24T20:08:29.686Z,12.07
2018-09-24T20:11:03.287Z,14.37
2018-09-24T20:13:37.055Z,13.97
2018-09-24T20:16:10.675Z,17.23
2018-09-24T20:18:44.330Z,14.47
2018-09-24T20:21:17.977Z,19.67
2018-09-24T20:23:51.765Z,18.90
2018-09-24T20:26:25.558Z,18.50
2018-09-24T20:28:59.336Z,17.17
2018-09-24T20:31:33.168Z,18.80
2018-09-24T20:34:06.934Z,16.27
2018-09-24T20:36:40.835Z,12.87
2018-09-24T20:39:14.617Z,15.97
2018-09-24T20:41:48.606Z,13.37
2018-09-24T20:44:22.508Z,14.37
2018-09-24T20:46:56.337Z,12.17
2018-09-24T20:49:30.270Z,10.70
2018-09-24T20:52:04.174Z,10.80
2018-09-24T20:54:38.071Z,11.50
2018-09-24T20:57:12.053Z,8.57
2018-09-24T20:59:45.871Z,12.20
2018-09-24T21:02:19.540Z,11.87
2018-09-24T21:04:53.509Z,10.13
2018-09-24T21:07:27.233Z,11.70
2018-09-24T21:10:00.904Z,10.10
2018-09-24T21:12:34.599Z,10.27
2018-09-24T21:15:08.361Z,11.53
2018-09-24T21:17:42.207Z,9.90
2018-09-24T21:20:15.869Z,8.90
2018-09-24T21:22:49.760Z,11.80
2018-09-24T21:25:23.395Z,10.27
2018-09-24T21:27:57.063Z,12.13
2018-09-24T21:30:30.780Z,8.00
2018-09-24T21:33:04.578Z,8.70
2018-09-24T21:35:38.301Z,9.10
2018-09-24T21:38:12.045Z,12.03
2018-09-24T21:40:45.933Z,9.73
2018-09-24T21:43:19.756Z,8.53
2018-09-24T21:45:53.612Z,8.47
2018-09-24T21:51:00.308Z,9.63
2018-09-24T21:53:34.069Z,11.53
2018-09-24T21:56:07.873Z,11.07
2018-09-24T21:58:41.596Z,7.67
2018-09-24T22:01:15.392Z,12.07
2018-09-24T22:03:49.292Z,9.37
2018-09-24T22:06:23.241Z,9.73
2018-09-24T22:08:57.388Z,8.33
2018-09-24T22:11:32.165Z,10.50
2018-09-24T22:14:05.813Z,10.93
2018-09-24T22:16:39.399Z,10.67
2018-09-24T22:19:13.061Z,11.37
2018-09-24T22:21:46.967Z,12.80
2018-09-24T22:24:20.555Z,14.03
2018-09-24T22:26:54.280Z,10.30
2018-09-24T22:29:28.079Z,9.20
2018-09-24T22:32:01.816Z,12.73
2018-09-24T22:34:35.406Z,11.10
2018-09-24T22:37:09.242Z,12.90
2018-09-24T22:39:42.940Z,12.80
2018-09-24T22:42:16.765Z,12.27
2018-09-24T22:44:50.667Z,10.27
2018-09-24T22:47:24.609Z,13.77
2018-09-24T22:49:59.359Z,14.80
2018-09-24T22:52:33.234Z,11.33
2018-09-24T22:55:07.013Z,10.77
2018-09-24T22:57:40.711Z,9.63
2018-09-24T23:00:14.453Z,8.10
2018-09-24T23:02:48.252Z,9.40
2018-09-24T23:05:21.975Z,8.30
2018-09-24T23:07:55.761Z,9.90
2018-09-24T23:10:29.476Z,9.30
2018-09-24T23:13:03.072Z,10.67
2018-09-24T23:15:36.920Z,7.30
2018-09-24T23:18:10.806Z,9.23
2018-09-24T23:20:44.696Z,7.93
2018-09-24T23:23:18.320Z,6.37
2018-09-24T23:25:52.872Z,9.30
2018-09-24T23:28:26.640Z,9.47
2018-09-24T23:31:00.432Z,9.57
2018-09-24T23:33:34.085Z,10.70
2018-09-24T23:36:07.829Z,10.13
2018-09-24T23:38:41.541Z,9.67
2018-09-24T23:41:15.353Z,10.97
2018-09-24T23:43:48.992Z,12.53
2018-09-24T23:46:22.849Z,10.90
2018-09-24T23:48:56.699Z,12.40
2018-09-24T23:51:30.516Z,9.20
2018-09-24T23:54:04.302Z,9.73
2018-09-24T23:56:37.934Z,10.47
2018-09-24T23:59:11.725Z,9.60
